createdAt,value
2022-08-26T00:00:30.891Z,25.44
2022-08-26T00:02:02.625Z,25.33
2022-08-26T00:03:35.535Z,25.27
2022-08-26T00:05:07.373Z,25.36
2022-08-26T00:06:42.737Z,25.39
2022-08-26T00:08:18.713Z,25.39
2022-08-26T00:09:54.381Z,25.41
2022-08-26T00:11:27.270Z,25.47
2022-08-26T00:12:58.826Z,25.49
2022-08-26T00:14:31.859Z,25.42
2022-08-26T00:16:04.258Z,25.37
2022-08-26T00:17:36.371Z,25.37
2022-08-26T00:19:11.756Z,25.45
2022-08-26T00:20:44.569Z,25.61
2022-08-26T00:22:21.518Z,25.76
2022-08-26T00:23:53.600Z,25.87
2022-08-26T00:25:25.351Z,25.93
2022-08-26T00:26:56.911Z,26.03
2022-08-26T00:28:28.400Z,26.07
2022-08-26T00:30:01.662Z,26.06
2022-08-26T00:31:33.300Z,26.09
2022-08-26T00:33:06.200Z,26.14
2022-08-26T00:34:38.961Z,26.20
2022-08-26T00:36:19.895Z,26.20
2022-08-26T00:37:51.731Z,26.05
2022-08-26T00:39:23.232Z,25.81
2022-08-26T00:40:55.988Z,25.61
2022-08-26T00:42:27.845Z,25.52
2022-08-26T00:43:59.410Z,25.43
2022-08-26T00:45:38.025Z,25.37
2022-08-26T00:47:15.242Z,25.30
2022-08-26T00:48:51.368Z,25.31
2022-08-26T00:50:25.114Z,25.27
2022-08-26T00:52:00.851Z,25.22
2022-08-26T00:53:36.627Z,25.14
2022-08-26T00:55:11.729Z,25.10
2022-08-26T00:56:55.350Z,24.98
2022-08-26T00:58:28.078Z,24.88
2022-08-26T01:00:01.110Z,24.80
2022-08-26T01:01:34.066Z,24.74
2022-08-26T01:03:05.808Z,24.75
2022-08-26T01:04:45.100Z,24.58
2022-08-26T01:06:16.636Z,24.46
2022-08-26T01:07:48.944Z,24.47
2022-08-26T01:09:23.396Z,24.43
2022-08-26T01:10:55.779Z,24.31
2022-08-26T01:12:28.925Z,24.20
2022-08-26T01:14:02.735Z,24.13
2022-08-26T01:15:35.409Z,24.11
2022-08-26T01:17:08.589Z,24.04
2022-08-26T01:18:43.237Z,24.04
2022-08-26T01:20:19.229Z,24.13
2022-08-26T01:21:55.474Z,24.19
2022-08-26T01:23:32.448Z,24.18
2022-08-26T01:25:04.789Z,24.21
2022-08-26T01:26:41.414Z,24.21
2022-08-26T01:28:14.447Z,24.28
2022-08-26T01:29:48.729Z,24.22
2022-08-26T01:31:23.758Z,24.19
2022-08-26T01:32:56.476Z,24.23
2022-08-26T01:34:29.684Z,24.27
2022-08-26T01:36:01.412Z,24.28
2022-08-26T01:37:33.918Z,24.24
2022-08-26T01:39:07.580Z,24.13
2022-08-26T01:40:42.993Z,24.06
2022-08-26T01:42:15.632Z,24.01
2022-08-26T01:43:50.549Z,23.92
2022-08-26T01:45:25.362Z,23.89
2022-08-26T01:46:57.456Z,23.82
2022-08-26T01:48:32.200Z,23.85
2022-08-26T01:50:05.913Z,23.82
2022-08-26T01:51:38.520Z,23.84
2022-08-26T01:53:12.660Z,23.82
2022-08-26T01:54:46.265Z,23.83
2022-08-26T01:56:18.513Z,23.82
2022-08-26T01:57:56.248Z,23.81
2022-08-26T01:59:28.129Z,23.70
2022-08-26T02:00:59.825Z,23.65
2022-08-26T02:02:31.432Z,23.57
2022-08-26T02:04:06.008Z,23.52
2022-08-26T02:05:37.886Z,23.57
2022-08-26T02:07:11.635Z,23.58
2022-08-26T02:08:44.798Z,23.53
2022-08-26T02:10:17.693Z,23.54
2022-08-26T02:11:52.745Z,23.57
2022-08-26T02:13:26.640Z,23.48
2022-08-26T02:15:00.867Z,23.40
2022-08-26T02:16:34.443Z,23.41
2022-08-26T02:18:14.143Z,23.35
2022-08-26T02:19:47.349Z,23.26
2022-08-26T02:21:19.100Z,23.24
2022-08-26T02:22:50.727Z,23.20
2022-08-26T02:24:23.598Z,23.10
2022-08-26T02:26:07.127Z,23.15
2022-08-26T02:27:39.685Z,23.14
2022-08-26T02:29:13.657Z,23.19
2022-08-26T02:30:47.131Z,23.27
2022-08-26T02:32:18.745Z,23.26
2022-08-26T02:33:50.282Z,23.30
2022-08-26T02:35:22.925Z,23.21
2022-08-26T02:36:56.909Z,23.12
2022-08-26T02:38:29.388Z,23.05
2022-08-26T02:40:01.711Z,23.07
2022-08-26T02:41:36.041Z,23.09
2022-08-26T02:43:16.927Z,23.11
2022-08-26T02:44:49.510Z,23.10
2022-08-26T02:46:21.542Z,23.07
2022-08-26T02:48:00.756Z,23.03
2022-08-26T02:49:32.300Z,23.03
2022-08-26T02:51:04.608Z,23.14
2022-08-26T02:52:36.740Z,23.20
2022-08-26T02:54:09.223Z,23.21
2022-08-26T02:55:41.833Z,23.25
2022-08-26T02:57:15.137Z,23.27
2022-08-26T02:58:46.882Z,23.20
2022-08-26T03:00:18.628Z,23.14
2022-08-26T03:01:50.243Z,23.10
2022-08-26T03:03:22.476Z,23.05
2022-08-26T03:04:58.104Z,23.03
2022-08-26T03:06:33.684Z,23.01
2022-08-26T03:08:05.291Z,23.03
2022-08-26T03:09:36.787Z,23.07
2022-08-26T03:11:08.557Z,23.05
2022-08-26T03:12:47.357Z,23.13
2022-08-26T03:14:19.697Z,23.14
2022-08-26T03:15:52.284Z,23.12
2022-08-26T03:17:23.985Z,23.15
2022-08-26T03:18:58.463Z,23.19
2022-08-26T03:20:30.966Z,23.21
2022-08-26T03:22:03.906Z,23.17
2022-08-26T03:23:35.442Z,23.16
2022-08-26T03:25:09.076Z,23.14
2022-08-26T03:26:40.583Z,23.10
2022-08-26T03:28:27.025Z,23.09
2022-08-26T03:30:17.517Z,23.02
2022-08-26T03:31:49.066Z,23.03
2022-08-26T03:33:22.282Z,23.02
2022-08-26T03:34:53.923Z,23.08
2022-08-26T03:36:25.440Z,23.13
2022-08-26T03:37:57.527Z,23.12
2022-08-26T03:39:31.668Z,23.08
2022-08-26T03:41:04.239Z,23.02
2022-08-26T03:42:39.190Z,23.01
2022-08-26T03:44:12.100Z,23.03
2022-08-26T03:45:44.244Z,23.02
2022-08-26T03:47:17.517Z,23.01
2022-08-26T03:48:49.405Z,23.03
2022-08-26T03:50:22.578Z,23.02
2022-08-26T03:51:55.044Z,23.04
2022-08-26T03:53:26.964Z,23.05
2022-08-26T03:54:58.518Z,23.02
2022-08-26T03:56:30.273Z,22.98
2022-08-26T03:58:02.137Z,22.92
2022-08-26T03:59:35.463Z,23.02
2022-08-26T04:01:08.455Z,23.04
2022-08-26T04:02:40.320Z,22.99
2022-08-26T04:04:15.433Z,22.94
2022-08-26T04:05:51.477Z,22.91
2022-08-26T04:07:25.316Z,22.94
2022-08-26T04:08:57.796Z,22.92
2022-08-26T04:10:29.677Z,22.98
2022-08-26T04:12:01.305Z,23.04
2022-08-26T04:13:34.890Z,22.98
2022-08-26T04:15:10.313Z,22.99
2022-08-26T04:16:42.406Z,23.02
2022-08-26T04:18:15.546Z,22.95
2022-08-26T04:19:47.373Z,22.98
2022-08-26T04:21:18.914Z,22.96
2022-08-26T04:22:52.100Z,22.98
2022-08-26T04:24:24.458Z,23.01
2022-08-26T04:25:55.955Z,23.06
2022-08-26T04:27:27.864Z,23.03
2022-08-26T04:28:59.350Z,23.00
2022-08-26T04:30:32.371Z,23.08
2022-08-26T04:32:04.449Z,23.08
2022-08-26T04:33:35.952Z,23.11
2022-08-26T04:35:13.278Z,23.12
2022-08-26T04:36:45.057Z,23.12
2022-08-26T04:38:16.748Z,23.14
2022-08-26T04:39:50.499Z,23.05
2022-08-26T04:41:22.836Z,23.04
2022-08-26T04:42:56.792Z,23.10
2022-08-26T04:44:30.211Z,23.10
2022-08-26T04:46:04.577Z,23.13
2022-08-26T04:47:36.121Z,23.25
2022-08-26T04:49:08.612Z,23.42
2022-08-26T04:50:40.195Z,23.58
2022-08-26T04:52:15.309Z,23.72
2022-08-26T04:53:47.710Z,23.85
2022-08-26T04:55:19.300Z,23.83
2022-08-26T04:56:51.321Z,23.82
2022-08-26T04:58:24.450Z,23.78
2022-08-26T04:59:56.887Z,23.72
2022-08-26T05:01:31.417Z,23.67
2022-08-26T05:03:03.015Z,23.60
2022-08-26T05:04:36.048Z,23.53
2022-08-26T05:06:07.622Z,23.48
2022-08-26T05:07:41.137Z,23.45
2022-08-26T05:09:13.065Z,23.46
2022-08-26T05:10:48.331Z,23.43
2022-08-26T05:12:19.964Z,23.47
2022-08-26T05:13:51.512Z,23.54
2022-08-26T05:15:23.049Z,23.53
2022-08-26T05:16:55.953Z,23.49
2022-08-26T05:18:29.912Z,23.49
2022-08-26T05:20:01.441Z,23.45
2022-08-26T05:21:33.874Z,23.31
2022-08-26T05:23:05.958Z,23.33
2022-08-26T05:24:39.546Z,23.37
2022-08-26T05:26:11.067Z,23.33
2022-08-26T05:27:42.572Z,23.37
2022-08-26T05:29:14.146Z,23.47
2022-08-26T05:30:46.084Z,23.53
2022-08-26T05:32:18.962Z,23.60
2022-08-26T05:33:50.536Z,23.67
2022-08-26T05:35:23.357Z,23.71
2022-08-26T05:36:55.391Z,23.69
2022-08-26T05:38:30.362Z,23.69
2022-08-26T05:40:02.466Z,23.70
2022-08-26T05:41:36.290Z,23.69
2022-08-26T05:43:10.492Z,23.62
2022-08-26T05:44:55.695Z,23.63
2022-08-26T05:46:27.984Z,23.54
2022-08-26T05:48:00.863Z,23.65
2022-08-26T05:49:32.425Z,23.79
2022-08-26T05:51:05.361Z,23.79
2022-08-26T05:52:37.720Z,23.86
2022-08-26T05:54:10.398Z,23.86
2022-08-26T05:55:42.682Z,23.91
2022-08-26T05:57:14.337Z,23.99
2022-08-26T05:58:46.310Z,23.92
2022-08-26T06:00:17.872Z,23.82
2022-08-26T06:01:49.511Z,23.85
2022-08-26T06:03:22.400Z,23.80
2022-08-26T06:04:54.068Z,23.71
2022-08-26T06:06:28.051Z,23.65
2022-08-26T06:08:15.873Z,23.62
2022-08-26T06:09:50.910Z,23.68
2022-08-26T06:11:26.531Z,23.75
2022-08-26T06:13:00.185Z,23.75
2022-08-26T06:14:34.237Z,23.61
2022-08-26T06:16:07.084Z,23.53
2022-08-26T06:17:38.703Z,23.52
2022-08-26T06:19:12.477Z,23.52
2022-08-26T06:20:57.407Z,23.60
2022-08-26T06:22:48.416Z,23.78
2022-08-26T06:24:38.293Z,23.93
2022-08-26T06:26:10.908Z,23.91
2022-08-26T06:27:42.872Z,23.89
2022-08-26T06:29:23.656Z,23.84
2022-08-26T06:30:56.548Z,23.89
2022-08-26T06:32:28.227Z,23.98
2022-08-26T06:34:01.586Z,24.00
2022-08-26T06:35:37.328Z,23.94
2022-08-26T06:37:09.685Z,23.86
2022-08-26T06:38:41.864Z,23.79
2022-08-26T06:40:13.487Z,23.82
2022-08-26T06:41:45.239Z,23.84
2022-08-26T06:43:24.222Z,23.90
2022-08-26T06:44:56.561Z,23.99
2022-08-26T06:46:29.473Z,23.99
2022-08-26T06:48:01.097Z,24.08
2022-08-26T06:49:32.771Z,24.08
2022-08-26T06:51:07.629Z,24.16
2022-08-26T06:52:40.958Z,24.19
2022-08-26T06:54:12.558Z,24.15
2022-08-26T06:55:45.738Z,24.13
2022-08-26T06:57:17.255Z,24.16
2022-08-26T06:58:48.905Z,23.98
2022-08-26T07:00:21.272Z,23.88
2022-08-26T07:01:53.334Z,23.83
2022-08-26T07:03:25.229Z,23.82
2022-08-26T07:04:57.004Z,23.82
2022-08-26T07:06:30.119Z,23.73
2022-08-26T07:08:02.005Z,23.69
2022-08-26T07:09:35.370Z,23.71
2022-08-26T07:11:09.557Z,23.78
2022-08-26T07:12:41.118Z,23.83
2022-08-26T07:14:13.049Z,23.76
2022-08-26T07:15:44.809Z,23.80
2022-08-26T07:17:16.712Z,23.74
2022-08-26T07:18:48.891Z,23.54
2022-08-26T07:20:21.369Z,23.57
2022-08-26T07:21:54.195Z,23.61
2022-08-26T07:23:27.375Z,23.63
2022-08-26T07:24:59.364Z,23.64
2022-08-26T07:26:31.575Z,23.69
2022-08-26T07:28:03.913Z,23.73
2022-08-26T07:29:36.515Z,23.85
2022-08-26T07:31:09.588Z,23.94
2022-08-26T07:32:41.868Z,24.00
2022-08-26T07:34:13.900Z,24.10
2022-08-26T07:35:45.549Z,24.22
2022-08-26T07:37:18.593Z,24.32
2022-08-26T07:38:52.284Z,24.35
2022-08-26T07:40:23.847Z,24.35
2022-08-26T07:41:55.401Z,24.11
2022-08-26T07:43:27.009Z,24.09
2022-08-26T07:45:00.822Z,24.07
2022-08-26T07:46:32.529Z,24.03
2022-08-26T07:48:05.113Z,23.97
2022-08-26T07:49:36.684Z,23.96
2022-08-26T07:51:08.626Z,23.89
2022-08-26T07:52:42.272Z,23.89
2022-08-26T07:54:13.799Z,23.85
2022-08-26T07:55:45.394Z,23.72
2022-08-26T07:57:16.947Z,23.70
2022-08-26T07:58:51.481Z,23.67
2022-08-26T08:00:24.077Z,23.77
2022-08-26T08:01:57.426Z,23.77
2022-08-26T08:03:28.950Z,23.72
2022-08-26T08:05:02.161Z,23.68
2022-08-26T08:06:34.489Z,23.63
2022-08-26T08:08:26.988Z,23.70
2022-08-26T08:09:59.612Z,23.59
2022-08-26T08:11:31.448Z,23.47
2022-08-26T08:13:03.048Z,23.62
2022-08-26T08:14:36.540Z,23.72
2022-08-26T08:16:12.462Z,23.80
2022-08-26T08:17:44.461Z,23.94
2022-08-26T08:19:16.024Z,24.00
2022-08-26T08:21:04.713Z,24.07
2022-08-26T08:22:40.039Z,24.11
2022-08-26T08:24:13.769Z,24.07
2022-08-26T08:25:45.346Z,23.87
2022-08-26T08:27:18.142Z,23.95
2022-08-26T08:28:57.776Z,24.04
2022-08-26T08:30:29.423Z,24.11
2022-08-26T08:32:01.065Z,24.24
2022-08-26T08:33:34.575Z,24.30
2022-08-26T08:35:10.828Z,24.33
2022-08-26T08:36:43.273Z,24.35
2022-08-26T08:38:15.486Z,24.38
2022-08-26T08:39:48.996Z,24.41
2022-08-26T08:41:30.098Z,24.47
2022-08-26T08:43:04.270Z,24.20
2022-08-26T08:44:37.736Z,23.86
2022-08-26T08:46:12.217Z,23.82
2022-08-26T08:47:47.444Z,23.85
2022-08-26T08:49:19.195Z,24.01
2022-08-26T08:50:52.450Z,24.18
2022-08-26T08:52:28.888Z,24.39
2022-08-26T08:54:00.626Z,24.45
2022-08-26T08:55:40.624Z,24.37
2022-08-26T08:57:17.327Z,24.39
2022-08-26T08:58:52.165Z,24.51
2022-08-26T09:00:30.204Z,24.52
2022-08-26T09:02:06.514Z,24.63
2022-08-26T09:03:43.263Z,24.78
2022-08-26T09:05:18.496Z,24.90
2022-08-26T09:06:52.747Z,24.95
2022-08-26T09:08:28.266Z,24.82
2022-08-26T09:10:02.877Z,24.83
2022-08-26T09:11:36.576Z,24.86
2022-08-26T09:13:13.725Z,24.79
2022-08-26T09:14:49.404Z,24.82
2022-08-26T09:16:25.358Z,24.89
2022-08-26T09:18:02.902Z,24.87
2022-08-26T09:19:40.248Z,24.89
2022-08-26T09:21:13.234Z,24.88
2022-08-26T09:22:44.944Z,24.95
2022-08-26T09:24:16.501Z,24.99
2022-08-26T09:25:51.279Z,25.02
2022-08-26T09:27:41.156Z,25.09
2022-08-26T09:31:02.015Z,25.09
2022-08-26T09:32:37.376Z,25.14
2022-08-26T09:34:13.273Z,25.14
2022-08-26T09:35:52.185Z,25.10
2022-08-26T09:37:33.768Z,25.18
2022-08-26T09:39:10.731Z,25.11
2022-08-26T09:40:56.231Z,25.11
2022-08-26T09:42:30.986Z,25.11
2022-08-26T09:44:14.547Z,25.07
2022-08-26T09:45:50.719Z,24.88
2022-08-26T09:47:26.545Z,24.73
2022-08-26T09:49:18.227Z,24.55
2022-08-26T09:50:53.094Z,24.37
2022-08-26T09:52:26.637Z,24.28
2022-08-26T09:53:59.344Z,24.37
2022-08-26T09:55:30.864Z,24.37
2022-08-26T09:57:16.933Z,24.47
2022-08-26T09:58:48.774Z,24.63
2022-08-26T10:00:26.346Z,24.76
2022-08-26T10:02:16.023Z,24.85
2022-08-26T10:03:49.955Z,24.96
2022-08-26T10:05:28.384Z,24.99
2022-08-26T10:07:01.877Z,25.05
2022-08-26T10:08:34.382Z,25.01
2022-08-26T10:10:09.274Z,25.11
2022-08-26T10:11:44.015Z,25.21
2022-08-26T10:13:17.604Z,25.24
2022-08-26T10:14:51.183Z,25.27
2022-08-26T10:16:28.434Z,25.19
2022-08-26T10:18:04.349Z,24.99
2022-08-26T10:19:40.349Z,25.03
2022-08-26T10:21:31.076Z,25.14
2022-08-26T10:23:05.516Z,25.24
2022-08-26T10:24:40.645Z,25.23
2022-08-26T10:26:16.323Z,24.95
2022-08-26T10:27:59.405Z,24.86
2022-08-26T10:29:34.249Z,24.85
2022-08-26T10:31:10.960Z,24.91
2022-08-26T10:32:45.798Z,25.11
2022-08-26T10:34:18.489Z,25.17
2022-08-26T10:35:53.950Z,25.21
2022-08-26T10:37:31.039Z,25.27
2022-08-26T10:39:07.601Z,25.16
2022-08-26T10:40:47.233Z,25.17
2022-08-26T10:42:24.267Z,25.45
2022-08-26T10:43:58.541Z,25.75
2022-08-26T10:45:33.049Z,25.87
2022-08-26T10:47:09.364Z,25.96
2022-08-26T10:48:46.658Z,26.10
2022-08-26T10:50:19.316Z,26.23
2022-08-26T10:51:56.040Z,26.30
2022-08-26T10:53:32.683Z,26.44
2022-08-26T10:55:11.240Z,26.53
2022-08-26T10:56:44.425Z,26.47
2022-08-26T10:58:26.255Z,26.48
2022-08-26T11:00:00.594Z,26.57
2022-08-26T11:01:43.833Z,26.66
2022-08-26T11:03:24.524Z,26.66
2022-08-26T11:04:59.210Z,26.58
2022-08-26T11:06:32.710Z,26.68
2022-08-26T11:08:28.539Z,26.73
2022-08-26T11:10:00.642Z,26.36
2022-08-26T11:11:46.924Z,25.94
2022-08-26T11:13:18.895Z,25.63
2022-08-26T11:14:58.427Z,25.59
2022-08-26T11:16:42.818Z,25.74
2022-08-26T11:18:35.791Z,25.62
2022-08-26T11:20:13.308Z,25.64
2022-08-26T11:21:50.818Z,25.59
2022-08-26T11:23:45.271Z,25.63
2022-08-26T11:25:29.161Z,25.55
2022-08-26T11:27:01.665Z,25.58
2022-08-26T11:28:34.573Z,25.50
2022-08-26T11:30:07.461Z,25.41
2022-08-26T11:31:52.992Z,25.52
2022-08-26T11:33:56.951Z,25.57
2022-08-26T11:35:43.332Z,25.61
2022-08-26T11:37:18.028Z,25.51
2022-08-26T11:38:49.560Z,25.25
2022-08-26T11:40:25.091Z,25.29
2022-08-26T11:42:00.025Z,25.39
2022-08-26T11:43:32.494Z,25.59
2022-08-26T11:45:13.199Z,25.76
2022-08-26T11:46:51.976Z,25.91
2022-08-26T11:48:29.660Z,25.93
2022-08-26T11:50:08.622Z,26.04
2022-08-26T11:51:41.915Z,26.13
2022-08-26T11:53:19.224Z,26.27
2022-08-26T11:55:03.853Z,26.42
2022-08-26T11:56:35.928Z,26.52
2022-08-26T11:58:07.910Z,26.57
2022-08-26T11:59:41.499Z,26.57
2022-08-26T12:01:21.536Z,26.51
2022-08-26T12:02:54.649Z,26.52
2022-08-26T12:04:29.083Z,26.59
2022-08-26T12:06:00.942Z,26.64
2022-08-26T12:07:35.642Z,26.58
2022-08-26T12:09:11.457Z,26.61
2022-08-26T12:10:43.053Z,26.58
2022-08-26T12:12:16.445Z,26.61
2022-08-26T12:13:54.965Z,26.62
2022-08-26T12:15:27.475Z,26.61
2022-08-26T12:17:09.774Z,26.61
2022-08-26T12:18:41.409Z,26.56
2022-08-26T12:20:17.812Z,26.30
2022-08-26T12:21:49.734Z,26.10
2022-08-26T12:23:22.629Z,25.89
2022-08-26T12:25:00.991Z,25.90
2022-08-26T12:26:33.743Z,25.85
2022-08-26T12:28:05.588Z,25.67
2022-08-26T12:29:37.257Z,25.52
2022-08-26T12:31:11.485Z,25.33
2022-08-26T12:32:57.297Z,25.22
2022-08-26T12:34:29.313Z,25.11
2022-08-26T12:36:01.984Z,25.03
2022-08-26T12:37:37.882Z,24.93
2022-08-26T12:39:13.529Z,24.89
2022-08-26T12:40:47.756Z,24.78
2022-08-26T12:42:24.183Z,24.81
2022-08-26T12:43:56.325Z,24.80
2022-08-26T12:45:28.677Z,24.78
2022-08-26T12:47:04.024Z,24.80
2022-08-26T12:48:37.313Z,24.92
2022-08-26T12:50:10.280Z,25.02
2022-08-26T12:51:49.513Z,25.06
2022-08-26T12:53:22.597Z,25.04
2022-08-26T12:55:00.231Z,25.02
2022-08-26T12:56:35.485Z,24.97
2022-08-26T12:58:11.222Z,24.84
2022-08-26T12:59:42.736Z,24.79
2022-08-26T13:01:23.653Z,24.71
2022-08-26T13:02:55.304Z,24.68
2022-08-26T13:04:34.149Z,24.67
2022-08-26T13:06:15.653Z,24.64
2022-08-26T13:08:02.725Z,24.64
2022-08-26T13:09:36.145Z,24.66
2022-08-26T13:11:10.981Z,24.57
2022-08-26T13:12:43.891Z,24.57
2022-08-26T13:14:21.040Z,24.57
2022-08-26T13:15:56.248Z,24.51
2022-08-26T13:17:28.623Z,24.45
2022-08-26T13:19:01.234Z,24.49
2022-08-26T13:20:32.839Z,24.50
2022-08-26T13:22:05.970Z,24.48
2022-08-26T13:23:41.934Z,24.44
2022-08-26T13:25:14.251Z,24.48
2022-08-26T13:26:51.666Z,24.50
2022-08-26T13:28:24.539Z,24.54
2022-08-26T13:29:57.569Z,24.45
2022-08-26T13:31:30.937Z,24.40
2022-08-26T13:33:02.644Z,24.33
2022-08-26T13:34:36.644Z,24.28
2022-08-26T13:36:08.184Z,24.25
2022-08-26T13:37:39.800Z,24.20
2022-08-26T13:39:13.581Z,24.09
2022-08-26T13:40:45.141Z,24.05
2022-08-26T13:42:16.658Z,24.02
2022-08-26T13:43:49.615Z,24.08
2022-08-26T13:45:21.146Z,24.08
2022-08-26T13:46:52.677Z,24.07
2022-08-26T13:48:24.198Z,24.12
2022-08-26T13:49:56.305Z,24.16
2022-08-26T13:51:27.995Z,24.22
2022-08-26T13:52:59.522Z,24.19
2022-08-26T13:54:31.084Z,24.23
2022-08-26T13:56:02.908Z,24.34
2022-08-26T13:57:34.556Z,24.36
2022-08-26T13:59:07.467Z,24.27
2022-08-26T14:00:39.626Z,24.23
2022-08-26T14:02:11.261Z,24.23
2022-08-26T14:03:43.609Z,24.26
2022-08-26T14:05:15.983Z,24.27
2022-08-26T14:06:47.607Z,24.28
2022-08-26T14:08:19.997Z,24.37
2022-08-26T14:09:51.586Z,24.46
2022-08-26T14:11:24.794Z,24.65
2022-08-26T14:12:56.546Z,24.69
2022-08-26T14:14:29.529Z,24.75
2022-08-26T14:16:02.580Z,24.75
2022-08-26T14:17:34.221Z,24.67
2022-08-26T14:19:07.237Z,24.50
2022-08-26T14:20:39.195Z,24.43
2022-08-26T14:22:10.780Z,24.58
2022-08-26T14:23:42.328Z,24.77
2022-08-26T14:25:14.411Z,24.75
2022-08-26T14:26:48.470Z,24.83
2022-08-26T14:28:20.057Z,25.13
2022-08-26T14:29:53.745Z,25.33
2022-08-26T14:31:26.824Z,25.30
2022-08-26T14:32:59.493Z,25.47
2022-08-26T14:34:31.083Z,25.61
2022-08-26T14:36:23.044Z,25.71
2022-08-26T14:37:55.298Z,25.68
2022-08-26T14:39:26.899Z,25.77
2022-08-26T14:40:58.424Z,25.84
2022-08-26T14:42:31.645Z,25.85
2022-08-26T14:44:05.428Z,25.84
2022-08-26T14:47:17.967Z,25.80
2022-08-26T14:48:49.552Z,26.05
2022-08-26T14:50:22.841Z,26.21
2022-08-26T14:51:54.781Z,26.17
2022-08-26T14:53:44.912Z,26.36
2022-08-26T14:55:16.590Z,26.32
2022-08-26T14:56:51.137Z,26.16
2022-08-26T14:58:23.013Z,26.31
2022-08-26T14:59:54.707Z,26.55
2022-08-26T15:01:30.895Z,26.76
2022-08-26T15:03:02.875Z,26.95
2022-08-26T15:04:34.607Z,27.04
2022-08-26T15:06:06.411Z,26.99
2022-08-26T15:07:38.420Z,26.91
2022-08-26T15:09:10.108Z,26.73
2022-08-26T15:10:41.684Z,26.67
2022-08-26T15:12:13.413Z,26.57
2022-08-26T15:13:44.995Z,26.59
2022-08-26T15:15:17.581Z,26.56
2022-08-26T15:16:51.586Z,26.54
2022-08-26T15:18:23.472Z,26.40
2022-08-26T15:19:55.032Z,26.39
2022-08-26T15:21:27.001Z,26.46
2022-08-26T15:23:03.313Z,26.49
2022-08-26T15:24:37.746Z,26.29
2022-08-26T15:26:10.041Z,26.15
2022-08-26T15:27:41.584Z,25.96
2022-08-26T15:29:13.232Z,25.89
2022-08-26T15:30:44.936Z,25.80
2022-08-26T15:32:17.940Z,25.88
2022-08-26T15:33:52.358Z,25.98
2022-08-26T15:35:24.113Z,26.12
2022-08-26T15:36:55.750Z,26.22
2022-08-26T15:38:28.957Z,26.25
2022-08-26T15:40:00.680Z,26.32
2022-08-26T15:41:34.700Z,26.33
2022-08-26T15:43:25.568Z,26.28
2022-08-26T15:44:58.339Z,26.18
2022-08-26T15:46:29.925Z,25.99
2022-08-26T15:48:03.504Z,25.89
2022-08-26T15:49:35.035Z,25.76
2022-08-26T15:51:07.504Z,25.73
2022-08-26T15:52:39.520Z,25.71
2022-08-26T15:54:11.044Z,25.69
2022-08-26T15:55:42.560Z,25.63
2022-08-26T15:57:16.435Z,25.53
2022-08-26T15:58:50.624Z,25.52
2022-08-26T16:00:22.290Z,25.60
2022-08-26T16:01:53.847Z,25.67
2022-08-26T16:03:26.832Z,25.78
2022-08-26T16:04:58.346Z,25.85
2022-08-26T16:06:32.562Z,25.88
2022-08-26T16:08:04.532Z,25.87
2022-08-26T16:09:36.089Z,25.77
2022-08-26T16:11:07.759Z,25.41
2022-08-26T16:12:39.696Z,25.02
2022-08-26T16:14:11.324Z,24.90
2022-08-26T16:15:43.321Z,24.82
2022-08-26T16:17:14.922Z,24.69
2022-08-26T16:18:48.354Z,24.78
2022-08-26T16:20:19.955Z,24.84
2022-08-26T16:21:51.727Z,24.96
2022-08-26T16:23:23.772Z,24.76
2022-08-26T16:24:56.376Z,24.62
2022-08-26T16:26:28.957Z,24.70
2022-08-26T16:28:00.557Z,24.64
2022-08-26T16:29:38.149Z,24.68
2022-08-26T16:31:10.239Z,24.77
2022-08-26T16:32:41.771Z,24.82
2022-08-26T16:34:14.753Z,24.82
2022-08-26T16:35:46.376Z,24.78
2022-08-26T16:37:17.955Z,24.76
2022-08-26T16:38:53.263Z,24.80
2022-08-26T16:40:24.798Z,24.80
2022-08-26T16:41:56.375Z,24.82
2022-08-26T16:43:28.102Z,24.88
2022-08-26T16:44:59.726Z,25.00
2022-08-26T16:46:31.307Z,24.99
2022-08-26T16:48:03.129Z,25.02
2022-08-26T16:49:36.051Z,24.95
2022-08-26T16:51:10.494Z,24.91
2022-08-26T16:52:42.049Z,24.83
2022-08-26T16:54:14.520Z,24.72
2022-08-26T16:55:46.174Z,24.66
2022-08-26T16:57:17.772Z,24.64
2022-08-26T16:58:49.690Z,24.74
2022-08-26T17:00:26.037Z,24.76
2022-08-26T17:01:57.665Z,24.74
2022-08-26T17:03:29.304Z,24.73
2022-08-26T17:05:02.233Z,24.66
2022-08-26T17:06:34.113Z,24.60
2022-08-26T17:08:06.010Z,24.69
2022-08-26T17:09:37.632Z,24.76
2022-08-26T17:11:13.067Z,24.79
2022-08-26T17:12:44.611Z,24.78
2022-08-26T17:14:16.150Z,24.71
2022-08-26T17:15:56.306Z,24.74
2022-08-26T17:17:31.456Z,24.85
2022-08-26T17:19:04.427Z,24.92
2022-08-26T17:20:37.344Z,24.94
2022-08-26T17:22:09.400Z,24.99
2022-08-26T17:23:42.432Z,24.89
2022-08-26T17:25:15.316Z,24.87
2022-08-26T17:26:47.800Z,24.69
2022-08-26T17:28:21.624Z,24.67
2022-08-26T17:29:53.136Z,24.63
2022-08-26T17:31:24.979Z,24.50
2022-08-26T17:32:56.677Z,24.56
2022-08-26T17:34:28.305Z,24.64
2022-08-26T17:36:01.438Z,24.51
2022-08-26T17:37:34.616Z,24.51
2022-08-26T17:39:06.150Z,24.56
2022-08-26T17:40:37.690Z,24.48
2022-08-26T17:42:09.446Z,24.32
2022-08-26T17:43:40.993Z,24.21
2022-08-26T17:45:12.985Z,24.28
2022-08-26T17:46:44.782Z,24.24
2022-08-26T17:48:17.178Z,24.11
2022-08-26T17:49:48.703Z,24.11
2022-08-26T17:51:22.639Z,24.12
2022-08-26T17:52:54.208Z,24.06
2022-08-26T17:54:26.020Z,24.03
2022-08-26T17:55:57.556Z,24.06
2022-08-26T17:57:29.103Z,24.17
2022-08-26T17:59:03.985Z,24.02
2022-08-26T18:00:36.036Z,23.98
2022-08-26T18:02:07.705Z,23.97
2022-08-26T18:03:39.712Z,24.02
2022-08-26T18:05:12.541Z,24.06
2022-08-26T18:06:45.667Z,24.14
2022-08-26T18:08:17.201Z,24.23
2022-08-26T18:09:48.732Z,24.23
2022-08-26T18:11:20.941Z,24.25
2022-08-26T18:12:52.557Z,24.13
2022-08-26T18:14:24.091Z,24.00
2022-08-26T18:15:55.658Z,23.98
2022-08-26T18:17:27.315Z,24.05
2022-08-26T18:18:59.448Z,24.12
2022-08-26T18:20:31.014Z,24.18
2022-08-26T18:22:03.977Z,24.23
2022-08-26T18:23:35.566Z,24.15
2022-08-26T18:25:07.801Z,24.01
2022-08-26T18:26:40.521Z,23.94
2022-08-26T18:28:12.041Z,23.92
2022-08-26T18:29:45.527Z,23.95
2022-08-26T18:31:17.308Z,23.89
2022-08-26T18:32:49.275Z,23.80
2022-08-26T18:34:21.000Z,23.86
2022-08-26T18:35:52.778Z,23.87
2022-08-26T18:37:27.970Z,23.95
2022-08-26T18:39:03.777Z,23.90
2022-08-26T18:40:36.831Z,23.95
2022-08-26T18:42:08.868Z,24.03
2022-08-26T18:43:40.478Z,23.88
2022-08-26T18:45:16.027Z,23.68
2022-08-26T18:46:48.048Z,23.65
2022-08-26T18:48:19.792Z,23.78
2022-08-26T18:49:51.366Z,23.90
2022-08-26T18:51:24.395Z,23.90
2022-08-26T18:52:57.346Z,23.89
2022-08-26T18:54:29.213Z,23.91
2022-08-26T18:56:01.048Z,23.85
2022-08-26T18:57:32.589Z,23.84
2022-08-26T18:59:04.757Z,23.84
2022-08-26T19:00:36.891Z,23.89
2022-08-26T19:02:09.614Z,23.85
2022-08-26T19:03:41.920Z,23.80
2022-08-26T19:05:14.469Z,23.73
2022-08-26T19:06:46.670Z,23.64
2022-08-26T19:08:19.524Z,23.62
2022-08-26T19:09:53.939Z,23.47
2022-08-26T19:11:32.667Z,23.47
2022-08-26T19:13:09.448Z,23.41
2022-08-26T19:14:41.684Z,23.39
2022-08-26T19:16:16.908Z,23.36
2022-08-26T19:17:48.530Z,23.35
2022-08-26T19:19:20.780Z,23.33
2022-08-26T19:20:54.876Z,23.35
2022-08-26T19:22:27.774Z,23.38
2022-08-26T19:24:02.300Z,23.42
2022-08-26T19:25:33.823Z,23.39
2022-08-26T19:27:05.386Z,23.35
2022-08-26T19:28:37.191Z,23.39
2022-08-26T19:30:09.827Z,23.37
2022-08-26T19:31:42.181Z,23.35
2022-08-26T19:33:16.573Z,23.38
2022-08-26T19:34:48.464Z,23.44
2022-08-26T19:36:25.328Z,23.47
2022-08-26T19:37:57.141Z,23.56
2022-08-26T19:39:30.025Z,23.64
2022-08-26T19:41:01.584Z,23.64
2022-08-26T19:42:33.553Z,23.68
2022-08-26T19:44:06.133Z,23.62
2022-08-26T19:45:37.857Z,23.62
2022-08-26T19:47:10.547Z,23.64
2022-08-26T19:48:44.737Z,23.63
2022-08-26T19:50:17.003Z,23.61
2022-08-26T19:51:48.530Z,23.48
2022-08-26T19:53:20.204Z,23.35
2022-08-26T19:54:53.133Z,23.26
2022-08-26T19:56:24.809Z,23.28
2022-08-26T19:57:56.493Z,23.18
2022-08-26T19:59:29.120Z,23.18
2022-08-26T20:01:00.765Z,23.25
2022-08-26T20:02:33.962Z,23.21
2022-08-26T20:04:05.536Z,23.21
2022-08-26T20:05:37.094Z,23.16
2022-08-26T20:07:09.070Z,23.12
2022-08-26T20:08:41.529Z,23.12
2022-08-26T20:10:15.514Z,23.09
2022-08-26T20:11:47.066Z,23.11
2022-08-26T20:13:22.005Z,23.02